Time;durP1;ratioP1;P1;durP2;ratioP2;P2;SDS_P1;SDS_P2;PMS_P1;PMS_P2;Temp;Humidity;BMP_temperature;BMP_pressure;BME280_temperature;BME280_humidity;BME280_pressure;Samples;Min_cycle;Max_cycle;Signal;HPM_P1;HPM_P2
2021/05/01 00:01:26;;;;;;;6.72;5.10;;;11.90;99.90;;;;;;5052573;28;20056;-83
2021/05/01 00:03:52;;;;;;;7.85;5.18;;;11.80;99.90;;;;;;5052642;28;20078;-81
2021/05/01 00:06:19;;;;;;;6.50;4.95;;;11.70;99.90;;;;;;5052542;28;20056;-82
2021/05/01 00:08:44;;;;;;;11.40;6.95;;;11.70;99.90;;;;;;5053697;28;20029;-83
2021/05/01 00:11:10;;;;;;;7.15;6.45;;;11.70;99.90;;;;;;5053562;28;20108;-80
2021/05/01 00:13:36;;;;;;;9.98;7.30;;;11.70;99.90;;;;;;5052297;28;20032;-85
2021/05/01 00:16:03;;;;;;;9.70;7.57;;;11.70;99.90;;;;;;5052270;28;20025;-84
2021/05/01 00:18:29;;;;;;;9.55;6.43;;;11.70;99.90;;;;;;5051730;28;20017;-82
2021/05/01 00:20:55;;;;;;;9.52;6.75;;;11.70;99.90;;;;;;5052382;28;20087;-82
2021/05/01 00:23:21;;;;;;;13.13;7.63;;;11.70;99.90;;;;;;5052417;28;20103;-80
2021/05/01 00:25:48;;;;;;;8.23;7.32;;;11.70;99.90;;;;;;5053314;28;20052;-85
2021/05/01 00:28:14;;;;;;;8.00;6.82;;;11.70;99.90;;;;;;5052110;28;20090;-80
2021/05/01 00:30:40;;;;;;;8.95;6.53;;;11.60;99.90;;;;;;5052258;28;20032;-82
2021/05/01 00:33:09;;;;;;;8.93;6.57;;;11.60;99.90;;;;;;5052157;28;20385;-81
2021/05/01 00:35:35;;;;;;;8.23;6.45;;;11.60;99.90;;;;;;5053568;28;20033;-80
2021/05/01 00:38:01;;;;;;;8.02;6.50;;;11.50;99.90;;;;;;5052185;28;20108;-80
2021/05/01 00:40:26;;;;;;;6.95;5.88;;;11.50;99.90;;;;;;5053484;28;20375;-81
2021/05/01 00:42:52;;;;;;;8.27;5.93;;;11.50;99.90;;;;;;5051771;28;20029;-83
2021/05/01 00:45:18;;;;;;;9.23;6.40;;;11.40;99.90;;;;;;5051913;28;20029;-80
2021/05/01 00:47:43;;;;;;;6.40;5.78;;;11.40;99.90;;;;;;5052016;28;20029;-82
2021/05/01 00:50:10;;;;;;;8.15;5.95;;;11.40;99.90;;;;;;5051842;28;20056;-81
2021/05/01 00:52:36;;;;;;;6.25;5.25;;;11.30;99.90;;;;;;5051365;28;20025;-84
2021/05/01 00:55:06;;;;;;;6.30;4.90;;;11.30;99.90;;;;;;5051995;28;20021;-82
2021/05/01 00:57:32;;;;;;;6.03;5.38;;;11.30;99.90;;;;;;5052268;28;20108;-84
2021/05/01 00:59:58;;;;;;;6.65;5.28;;;11.30;99.90;;;;;;5055705;28;20163;-81
2021/05/01 01:02:28;;;;;;;6.03;5.20;;;11.30;99.90;;;;;;5055293;28;20029;-83
2021/05/01 01:04:55;;;;;;;6.75;5.03;;;11.30;99.90;;;;;;5055975;28;20064;-80
2021/05/01 01:07:22;;;;;;;7.05;5.50;;;11.20;99.90;;;;;;5055783;28;20024;-80
2021/05/01 01:09:49;;;;;;;6.38;5.43;;;11.20;99.90;;;;;;5055276;28;20518;-81
2021/05/01 01:12:17;;;;;;;7.13;5.45;;;11.20;99.90;;;;;;5056538;28;20029;-81
2021/05/01 01:14:43;;;;;;;6.25;4.90;;;11.20;99.90;;;;;;5055664;28;20029;-82
2021/05/01 01:17:09;;;;;;;8.13;5.40;;;11.20;99.90;;;;;;5055552;28;20416;-80
2021/05/01 01:19:37;;;;;;;6.40;5.20;;;11.20;99.90;;;;;;5056692;28;20561;-81
2021/05/01 01:22:04;;;;;;;9.65;5.15;;;11.20;99.90;;;;;;5055591;28;20078;-81
2021/05/01 01:24:30;;;;;;;8.57;5.68;;;11.20;99.90;;;;;;5055719;28;20028;-82
2021/05/01 01:26:57;;;;;;;6.25;5.22;;;11.20;99.90;;;;;;5055314;28;20099;-81
2021/05/01 01:29:25;;;;;;;7.25;5.82;;;11.20;99.90;;;;;;5054819;28;20032;-82
2021/05/01 01:31:51;;;;;;;8.10;5.28;;;11.20;99.90;;;;;;5054981;28;20021;-83
2021/05/01 01:34:16;;;;;;;8.63;5.20;;;11.20;99.90;;;;;;5055201;28;20032;-83
2021/05/01 01:36:42;;;;;;;7.05;5.60;;;11.20;99.90;;;;;;5055393;28;20495;-81
2021/05/01 01:39:08;;;;;;;7.03;5.28;;;11.20;99.90;;;;;;5055192;28;20033;-82
2021/05/01 01:41:33;;;;;;;7.00;5.60;;;11.20;99.90;;;;;;5056551;28;20029;-83
2021/05/01 01:43:59;;;;;;;7.35;4.95;;;11.20;99.90;;;;;;5055167;28;20021;-82
2021/05/01 01:46:25;;;;;;;6.90;5.07;;;11.20;99.90;;;;;;5055196;28;20033;-81
2021/05/01 01:48:50;;;;;;;7.43;5.22;;;11.20;99.90;;;;;;5054873;28;20063;-80
2021/05/01 01:51:16;;;;;;;7.43;5.03;;;11.10;99.90;;;;;;5055029;28;20036;-82
2021/05/01 01:53:41;;;;;;;5.18;4.50;;;11.10;99.90;;;;;;5054696;28;20068;-82
2021/05/01 01:56:07;;;;;;;7.15;5.55;;;11.20;99.90;;;;;;5054967;28;20029;-84
2021/05/01 01:58:33;;;;;;;8.50;5.00;;;11.10;99.90;;;;;;5054705;28;20745;-80
2021/05/01 02:00:59;;;;;;;6.05;5.13;;;11.10;99.90;;;;;;5054815;28;20108;-81
2021/05/01 02:03:25;;;;;;;7.72;5.43;;;11.00;99.90;;;;;;5055687;28;20120;-79
2021/05/01 02:05:51;;;;;;;7.70;4.78;;;10.90;99.90;;;;;;5054750;28;20035;-82
2021/05/01 02:08:16;;;;;;;5.93;4.35;;;11.00;99.90;;;;;;5054416;28;20383;-80
2021/05/01 02:10:43;;;;;;;7.10;5.00;;;10.90;99.90;;;;;;5054247;28;20041;-82
2021/05/01 02:13:09;;;;;;;4.90;4.40;;;10.90;99.90;;;;;;5054517;28;20021;-82
2021/05/01 02:15:35;;;;;;;5.95;3.97;;;10.90;99.90;;;;;;5054518;28;20029;-81
2021/05/01 02:18:02;;;;;;;5.97;4.05;;;10.80;99.90;;;;;;5054557;28;20025;-84
2021/05/01 02:20:37;;;;;;;5.97;3.72;;;10.80;99.90;;;;;;5054485;28;20021;-81
2021/05/01 02:23:04;;;;;;;4.38;3.70;;;10.80;99.90;;;;;;5055928;28;20025;-80
2021/05/01 02:25:30;;;;;;;4.97;3.72;;;10.70;99.90;;;;;;5053916;28;20037;-81
2021/05/01 02:27:56;;;;;;;5.10;3.95;;;10.70;99.90;;;;;;5053768;28;20029;-81
2021/05/01 02:30:25;;;;;;;5.47;3.88;;;10.60;99.90;;;;;;5054328;28;20108;-80
2021/05/01 02:32:51;;;;;;;4.78;3.50;;;10.60;99.90;;;;;;5055342;28;20029;-80
2021/05/01 02:35:22;;;;;;;6.97;3.90;;;10.60;99.90;;;;;;5054501;28;20025;-82
2021/05/01 02:37:49;;;;;;;6.40;3.90;;;10.50;99.90;;;;;;5053659;28;20075;-83
2021/05/01 02:40:16;;;;;;;6.00;4.05;;;10.60;99.90;;;;;;5053831;28;20029;-79
2021/05/01 02:42:43;;;;;;;9.10;4.93;;;10.50;99.90;;;;;;5054125;28;20029;-81
2021/05/01 02:45:12;;;;;;;7.13;6.40;;;10.60;99.90;;;;;;5054024;28;20032;-79
2021/05/01 02:47:39;;;;;;;8.63;6.68;;;10.60;99.90;;;;;;5053601;28;20021;-79
2021/05/01 02:50:07;;;;;;;8.23;5.97;;;10.70;99.90;;;;;;5054860;28;20102;-81
2021/05/01 02:52:33;;;;;;;9.32;6.53;;;10.70;99.90;;;;;;5053806;28;20028;-81
2021/05/01 02:54:58;;;;;;;7.05;6.40;;;10.70;99.90;;;;;;5053936;28;20529;-80
2021/05/01 02:57:24;;;;;;;8.70;6.57;;;10.60;99.90;;;;;;5055007;28;20096;-81
2021/05/01 02:59:50;;;;;;;6.10;5.45;;;10.60;99.90;;;;;;5053783;28;20039;-83
2021/05/01 03:02:16;;;;;;;7.07;5.45;;;10.60;99.90;;;;;;5053747;28;20064;-84
2021/05/01 03:04:41;;;;;;;6.80;5.20;;;10.60;99.90;;;;;;5053836;28;20025;-83
2021/05/01 03:07:07;;;;;;;5.85;4.63;;;10.60;99.90;;;;;;5053606;28;20025;-81
2021/05/01 03:09:32;;;;;;;5.13;4.32;;;10.50;99.90;;;;;;5053212;28;20427;-81
2021/05/01 03:11:58;;;;;;;6.47;4.40;;;10.50;99.90;;;;;;5053188;28;20056;-83
2021/05/01 03:14:25;;;;;;;6.18;3.72;;;10.40;99.90;;;;;;5053424;28;20017;-82
2021/05/01 03:16:52;;;;;;;4.38;3.70;;;10.40;99.90;;;;;;5053478;28;20029;-80
2021/05/01 03:19:19;;;;;;;7.13;3.80;;;10.30;99.90;;;;;;5053530;28;20415;-80
2021/05/01 03:21:44;;;;;;;6.13;3.55;;;10.20;99.90;;;;;;5054209;28;20017;-80
2021/05/01 03:24:11;;;;;;;4.90;4.22;;;10.20;99.90;;;;;;5053402;28;20158;-82
2021/05/01 03:26:37;;;;;;;5.15;3.75;;;10.10;99.90;;;;;;5052948;28;20045;-82
2021/05/01 03:29:03;;;;;;;6.43;3.60;;;10.10;99.90;;;;;;5052801;28;20025;-83
2021/05/01 03:31:29;;;;;;;4.35;3.20;;;10.00;99.90;;;;;;5052928;28;20033;-81
2021/05/01 03:33:54;;;;;;;4.10;3.30;;;9.90;99.90;;;;;;5053013;28;20108;-81
2021/05/01 03:36:20;;;;;;;6.72;3.17;;;9.90;99.90;;;;;;5052842;28;20036;-80
2021/05/01 03:38:46;;;;;;;6.63;3.35;;;9.80;99.90;;;;;;5052771;28;20029;-82
2021/05/01 03:41:11;;;;;;;7.78;3.17;;;9.80;99.90;;;;;;5052729;28;20028;-81
2021/05/01 03:43:37;;;;;;;4.20;3.72;;;9.70;99.90;;;;;;5054110;28;20112;-81
2021/05/01 03:46:02;;;;;;;6.25;3.60;;;9.70;99.90;;;;;;5052762;28;20025;-80
2021/05/01 03:48:28;;;;;;;4.57;3.25;;;9.60;99.90;;;;;;5052232;28;20056;-81
2021/05/01 03:50:54;;;;;;;5.20;4.10;;;9.70;99.90;;;;;;5052645;28;20885;-82
2021/05/01 03:53:21;;;;;;;5.15;4.57;;;9.70;99.90;;;;;;5052599;28;20461;-82
2021/05/01 03:55:47;;;;;;;4.75;4.20;;;9.70;99.90;;;;;;5052478;28;20363;-83
2021/05/01 03:58:12;;;;;;;4.45;4.05;;;9.70;99.90;;;;;;5051870;28;20071;-80
2021/05/01 04:00:38;;;;;;;5.30;4.40;;;9.60;99.90;;;;;;5052060;28;20052;-79
2021/05/01 04:03:04;;;;;;;5.00;3.80;;;9.60;99.90;;;;;;5053703;28;20146;-84
2021/05/01 04:05:29;;;;;;;8.88;4.20;;;9.60;99.90;;;;;;5053568;28;20029;-80
2021/05/01 04:07:55;;;;;;;6.75;3.83;;;9.60;99.90;;;;;;5052333;28;20064;-81
2021/05/01 04:10:21;;;;;;;7.43;3.60;;;9.60;99.90;;;;;;5052609;28;20476;-79
2021/05/01 04:12:46;;;;;;;5.25;4.03;;;9.60;99.90;;;;;;5052585;28;20033;-79
2021/05/01 04:15:12;;;;;;;4.60;3.97;;;9.60;99.90;;;;;;5052464;28;20024;-80
2021/05/01 04:17:38;;;;;;;4.82;4.00;;;9.60;99.90;;;;;;5052470;28;20067;-82
2021/05/01 04:20:05;;;;;;;6.80;4.72;;;9.60;99.90;;;;;;5052368;28;20375;-85
2021/05/01 04:22:31;;;;;;;5.57;4.43;;;9.60;99.90;;;;;;5053557;28;20028;-80
2021/05/01 04:24:56;;;;;;;7.55;5.40;;;9.60;99.90;;;;;;5052424;28;20092;-82
2021/05/01 04:27:22;;;;;;;7.80;4.65;;;9.60;99.90;;;;;;5052244;28;20102;-82
2021/05/01 04:29:48;;;;;;;7.07;6.28;;;9.70;99.90;;;;;;5052550;28;20543;-82
2021/05/01 04:32:13;;;;;;;7.60;6.88;;;9.70;99.90;;;;;;5053132;28;20028;-80
2021/05/01 04:34:39;;;;;;;9.98;8.00;;;9.90;99.90;;;;;;5052559;28;20114;-80
2021/05/01 04:37:05;;;;;;;9.13;8.10;;;9.90;99.90;;;;;;5052120;28;20480;-81
2021/05/01 04:39:30;;;;;;;8.85;6.88;;;10.00;99.90;;;;;;5052131;28;20530;-81
2021/05/01 04:41:56;;;;;;;10.15;7.57;;;10.10;99.90;;;;;;5053660;28;20017;-81
2021/05/01 04:44:22;;;;;;;9.32;7.35;;;10.20;99.90;;;;;;5052301;28;20021;-81
2021/05/01 04:46:49;;;;;;;8.02;6.65;;;10.30;99.90;;;;;;5053231;28;20480;-80
2021/05/01 04:49:15;;;;;;;11.75;8.20;;;10.40;99.90;;;;;;5052347;28;20033;-80
2021/05/01 04:51:41;;;;;;;10.27;6.50;;;10.50;99.90;;;;;;5052493;28;20021;-80
2021/05/01 04:54:07;;;;;;;8.27;6.72;;;10.50;99.90;;;;;;5053713;28;20032;-80
2021/05/01 04:56:33;;;;;;;7.22;6.53;;;10.60;99.90;;;;;;5052204;28;20029;-82
2021/05/01 04:58:59;;;;;;;8.60;7.35;;;10.70;99.90;;;;;;5052281;28;20094;-85
2021/05/01 05:01:24;;;;;;;11.45;9.52;;;10.80;99.90;;;;;;5053301;28;20024;-78
2021/05/01 05:03:51;;;;;;;14.95;11.57;;;10.90;99.90;;;;;;5051808;28;20078;-84
2021/05/01 05:06:17;;;;;;;12.90;9.45;;;11.00;99.90;;;;;;5051837;28;20440;-84
2021/05/01 05:08:43;;;;;;;15.02;11.48;;;11.50;99.90;;;;;;5051896;28;20059;-82
2021/05/01 05:11:09;;;;;;;16.65;13.10;;;11.50;99.90;;;;;;5058463;28;20049;-80
2021/05/01 05:13:35;;;;;;;14.90;10.93;;;11.60;99.90;;;;;;5054225;28;20514;-82
2021/05/01 05:16:01;;;;;;;9.98;8.98;;;11.70;99.90;;;;;;5052969;28;20021;-85
2021/05/01 05:18:27;;;;;;;11.20;9.20;;;11.80;99.90;;;;;;5052566;28;20525;-84
2021/05/01 05:20:53;;;;;;;10.63;8.43;;;11.90;99.90;;;;;;5052031;28;20025;-82
2021/05/01 05:23:19;;;;;;;25.48;19.15;;;12.10;99.90;;;;;;5052572;28;20569;-82
2021/05/01 05:25:44;;;;;;;16.70;13.85;;;12.20;99.90;;;;;;5053696;28;20542;-82
2021/05/01 05:28:10;;;;;;;11.10;8.98;;;12.30;99.90;;;;;;5052788;28;20029;-83
2021/05/01 05:30:36;;;;;;;7.70;5.97;;;12.40;99.90;;;;;;5052410;28;20029;-84
2021/05/01 05:33:02;;;;;;;10.40;6.00;;;12.40;99.90;;;;;;5052527;28;20021;-82
2021/05/01 05:35:28;;;;;;;6.15;5.53;;;12.60;99.90;;;;;;5052259;28;20029;-82
2021/05/01 05:37:53;;;;;;;6.88;6.03;;;12.70;99.90;;;;;;5052646;28;20104;-84
2021/05/01 05:40:20;;;;;;;8.73;6.32;;;12.80;99.90;;;;;;5052520;28;20384;-83
2021/05/01 05:42:49;;;;;;;6.38;5.78;;;12.90;99.90;;;;;;5052567;28;20025;-83
2021/05/01 05:45:22;;;;;;;8.38;6.47;;;13.10;99.90;;;;;;5056818;28;20021;-81
2021/05/01 05:47:48;;;;;;;7.72;5.93;;;13.20;99.90;;;;;;5055976;28;20021;-86
2021/05/01 05:50:14;;;;;;;6.35;5.75;;;13.40;99.90;;;;;;5056486;28;20041;-85
2021/05/01 05:52:40;;;;;;;6.38;5.47;;;13.50;99.90;;;;;;5056055;28;20028;-84
2021/05/01 05:55:06;;;;;;;6.93;4.97;;;13.60;99.90;;;;;;5055887;28;20021;-81
2021/05/01 05:57:32;;;;;;;9.43;5.20;;;13.70;99.90;;;;;;5056627;28;20028;-84
2021/05/01 05:59:58;;;;;;;7.97;5.80;;;13.80;99.90;;;;;;5057198;28;20412;-83
2021/05/01 06:02:26;;;;;;;6.57;5.25;;;13.90;99.90;;;;;;5056421;28;20020;-81
2021/05/01 06:05:00;;;;;;;8.07;5.22;;;14.10;99.90;;;;;;5056203;28;20047;-84
2021/05/01 06:07:36;;;;;;;6.63;4.77;;;14.10;99.90;;;;;;5057661;28;20009;-85
2021/05/01 06:10:07;;;;;;;7.43;4.85;;;14.20;99.90;;;;;;5056214;28;21166;-86
2021/05/01 06:12:34;;;;;;;6.38;4.28;;;14.40;99.90;;;;;;5056026;28;20037;-86
2021/05/01 06:15:07;;;;;;;4.82;4.32;;;14.60;99.90;;;;;;5055713;28;20025;-81
2021/05/01 06:17:34;;;;;;;6.55;3.90;;;14.70;99.90;;;;;;5057344;28;20025;-83
2021/05/01 06:20:01;;;;;;;5.63;4.25;;;14.80;99.90;;;;;;5055804;28;20554;-85
2021/05/01 06:22:26;;;;;;;5.13;4.25;;;15.00;99.90;;;;;;5055844;28;20021;-84
2021/05/01 06:24:53;;;;;;;7.88;3.97;;;15.20;99.90;;;;;;5055366;28;20036;-83
2021/05/01 06:27:21;;;;;;;6.90;3.90;;;15.40;99.90;;;;;;5055390;28;20136;-81
2021/05/01 06:29:47;;;;;;;6.00;3.60;;;15.60;99.90;;;;;;5055639;28;20032;-82
2021/05/01 06:32:15;;;;;;;4.70;2.88;;;15.80;99.90;;;;;;5056307;28;20037;-86
2021/05/01 06:34:52;;;;;;;6.68;3.83;;;15.90;99.90;;;;;;5055087;28;20009;-89
2021/05/01 06:37:23;;;;;;;3.05;2.28;;;16.00;99.90;;;;;;5057007;28;20029;-83
2021/05/01 06:39:50;;;;;;;2.95;1.80;;;16.30;99.90;;;;;;5059860;28;20017;-82
2021/05/01 06:42:23;;;;;;;3.90;2.58;;;16.50;98.00;;;;;;5065380;28;20106;-83
2021/05/01 06:44:56;;;;;;;3.15;2.25;;;16.80;97.60;;;;;;5060605;28;20029;-83
2021/05/01 06:47:25;;;;;;;4.97;2.20;;;17.00;98.00;;;;;;5064046;28;20096;-83
2021/05/01 06:50:11;;;;;;;4.18;2.58;;;17.10;97.70;;;;;;5059044;28;20110;-86
2021/05/01 06:52:47;;;;;;;5.20;3.15;;;17.20;97.40;;;;;;5054412;28;20078;-83
2021/05/01 06:55:18;;;;;;;4.07;2.10;;;17.40;97.50;;;;;;5054878;28;20021;-82
2021/05/01 06:57:52;;;;;;;4.18;2.22;;;17.60;97.20;;;;;;5055536;28;20116;-84
2021/05/01 07:00:20;;;;;;;4.88;2.90;;;17.60;96.40;;;;;;5055446;28;20032;-84
2021/05/01 07:02:48;;;;;;;3.42;2.33;;;17.70;96.40;;;;;;5054244;28;20082;-78
2021/05/01 07:05:19;;;;;;;2.88;2.28;;;17.70;96.60;;;;;;5053421;28;20056;-87
2021/05/01 07:07:46;;;;;;;3.25;1.80;;;17.80;96.60;;;;;;5034942;28;20078;-85
2021/05/01 07:10:16;;;;;;;4.40;2.00;;;17.90;96.40;;;;;;5035326;28;20037;-82
2021/05/01 07:12:42;;;;;;;2.72;2.15;;;17.90;96.90;;;;;;5035243;28;20262;-82
2021/05/01 07:15:17;;;;;;;8.15;3.92;;;18.10;96.20;;;;;;5033753;28;20049;-83
2021/05/01 07:17:44;;;;;;;10.70;4.50;;;18.20;95.40;;;;;;5033307;28;20489;-84
2021/05/01 07:20:11;;;;;;;7.13;3.22;;;18.30;95.10;;;;;;5033928;28;20595;-86
2021/05/01 07:22:37;;;;;;;4.20;2.25;;;18.30;95.10;;;;;;5034120;28;20026;-86
2021/05/01 07:25:06;;;;;;;2.85;2.17;;;18.50;95.10;;;;;;5033633;28;20167;-83
2021/05/01 07:27:40;;;;;;;2.25;1.95;;;18.40;95.10;;;;;;5033900;28;20095;-84
2021/05/01 07:30:06;;;;;;;4.43;2.03;;;18.50;94.70;;;;;;5034146;28;20030;-83
2021/05/01 07:32:35;;;;;;;4.15;2.38;;;18.50;93.90;;;;;;5034728;28;20025;-86
2021/05/01 07:35:06;;;;;;;2.95;1.58;;;18.70;93.90;;;;;;5033959;28;20026;-80
2021/05/01 07:37:36;;;;;;;3.70;1.30;;;18.70;93.00;;;;;;5034648;28;20037;-82
2021/05/01 07:40:05;;;;;;;5.03;1.92;;;18.90;93.60;;;;;;5034718;28;20025;-82
2021/05/01 07:42:42;;;;;;;3.05;2.10;;;19.00;93.10;;;;;;5033379;28;20033;-81
2021/05/01 07:45:10;;;;;;;4.32;1.70;;;19.10;92.80;;;;;;5034238;28;20472;-81
2021/05/01 07:47:36;;;;;;;4.65;1.48;;;19.20;92.30;;;;;;5049441;28;20120;-82
2021/05/01 07:50:04;;;;;;;2.70;1.60;;;19.20;91.50;;;;;;5032856;28;20036;-81
2021/05/01 07:52:31;;;;;;;2.58;1.50;;;19.20;90.80;;;;;;5032994;28;20018;-82
2021/05/01 07:54:58;;;;;;;2.53;1.73;;;19.20;90.80;;;;;;5049134;28;20029;-81
2021/05/01 07:57:24;;;;;;;2.22;1.30;;;19.20;91.20;;;;;;5031988;28;20017;-79
2021/05/01 07:59:50;;;;;;;2.83;1.40;;;19.30;91.30;;;;;;5032250;28;20033;-79
2021/05/01 08:02:16;;;;;;;4.57;1.52;;;19.30;90.30;;;;;;5032870;28;20350;-80
2021/05/01 08:04:42;;;;;;;2.03;1.70;;;19.40;90.00;;;;;;5032358;28;20052;-79
2021/05/01 08:07:07;;;;;;;3.97;1.40;;;19.60;90.20;;;;;;5033890;28;20040;-79
2021/05/01 08:09:33;;;;;;;2.83;1.30;;;19.80;91.00;;;;;;5032248;28;20107;-83
2021/05/01 08:11:59;;;;;;;3.20;1.23;;;19.80;88.20;;;;;;5032150;28;20199;-80
2021/05/01 08:14:24;;;;;;;2.38;1.20;;;19.90;87.70;;;;;;5032309;28;20358;-80
2021/05/01 08:16:50;;;;;;;1.58;1.13;;;20.00;85.90;;;;;;5033288;28;20029;-82
2021/05/01 08:19:16;;;;;;;4.35;1.30;;;20.00;88.20;;;;;;5033570;28;20034;-87
2021/05/01 08:21:42;;;;;;;6.50;1.10;;;20.00;87.30;;;;;;5048019;28;20499;-87
2021/05/01 08:24:08;;;;;;;4.25;1.45;;;20.20;87.30;;;;;;5070688;28;20479;-84
2021/05/01 08:26:33;;;;;;;2.45;1.25;;;20.40;86.10;;;;;;5072945;28;20045;-84
2021/05/01 08:29:00;;;;;;;2.33;1.20;;;20.20;85.50;;;;;;5072868;28;20033;-84
2021/05/01 08:31:26;;;;;;;2.10;1.02;;;20.10;87.40;;;;;;5073041;28;20182;-82
2021/05/01 08:33:51;;;;;;;3.60;1.30;;;20.10;85.80;;;;;;5072418;28;20058;-80
2021/05/01 08:36:18;;;;;;;1.30;1.10;;;20.30;86.60;;;;;;5071992;28;20494;-82
2021/05/01 08:38:44;;;;;;;2.67;1.20;;;20.40;86.60;;;;;;5072573;28;20028;-80
2021/05/01 08:41:09;;;;;;;2.40;1.10;;;20.40;84.30;;;;;;5071674;28;20078;-80
2021/05/01 08:43:36;;;;;;;3.10;1.38;;;20.60;84.80;;;;;;5072166;28;20032;-80
2021/05/01 08:46:12;;;;;;;1.90;1.23;;;20.50;84.10;;;;;;5072139;28;20017;-82
2021/05/01 08:48:38;;;;;;;3.33;1.73;;;20.70;84.60;;;;;;5073505;28;20032;-80
2021/05/01 08:51:04;;;;;;;1.80;1.20;;;20.60;83.90;;;;;;5071602;28;20465;-79
2021/05/01 08:53:32;;;;;;;2.25;1.20;;;20.60;83.90;;;;;;5071572;28;20021;-80
2021/05/01 08:55:58;;;;;;;3.63;1.50;;;20.90;83.00;;;;;;5071437;28;20539;-80
2021/05/01 08:58:24;;;;;;;3.28;1.38;;;21.00;81.80;;;;;;5073054;28;20049;-80
2021/05/01 09:00:50;;;;;;;2.17;1.35;;;21.00;79.70;;;;;;5072374;28;20498;-85
2021/05/01 09:03:24;;;;;;;4.57;1.60;;;21.00;80.80;;;;;;5072189;28;20040;-84
2021/05/01 09:05:52;;;;;;;3.63;1.33;;;20.90;82.40;;;;;;5072705;28;20025;-81
2021/05/01 09:08:19;;;;;;;4.13;1.33;;;20.60;82.30;;;;;;5072160;28;20070;-84
2021/05/01 09:10:49;;;;;;;3.78;1.35;;;20.60;83.00;;;;;;5071694;28;20044;-85
2021/05/01 09:13:19;;;;;;;2.90;1.73;;;20.70;83.60;;;;;;5072872;28;20097;-85
2021/05/01 09:16:06;;;;;;;4.97;1.33;;;20.70;84.10;;;;;;5072521;28;20024;-82
2021/05/01 09:18:50;;;;;;;3.20;1.50;;;20.90;81.90;;;;;;5073140;28;20029;-81
2021/05/01 09:21:24;;;;;;;4.78;1.40;;;21.20;82.30;;;;;;5076003;28;20028;-80
2021/05/01 09:23:50;;;;;;;5.00;1.73;;;21.50;80.50;;;;;;5077282;28;20032;-85
2021/05/01 09:26:19;;;;;;;2.80;1.52;;;21.60;80.00;;;;;;5076885;28;20063;-82
2021/05/01 09:28:49;;;;;;;3.78;1.60;;;21.60;78.20;;;;;;5076444;28;20024;-81
2021/05/01 09:31:20;;;;;;;2.40;1.60;;;21.50;79.40;;;;;;5074657;28;20174;-83
2021/05/01 09:33:52;;;;;;;5.57;2.05;;;21.50;79.80;;;;;;5075804;28;20099;-80
2021/05/01 09:36:21;;;;;;;2.88;1.80;;;21.30;80.30;;;;;;5075820;28;20043;-78
2021/05/01 09:38:48;;;;;;;4.95;1.80;;;21.30;80.10;;;;;;5075933;28;20016;-80
2021/05/01 09:41:15;;;;;;;2.40;1.60;;;21.30;79.70;;;;;;5074459;28;20034;-80
2021/05/01 09:44:07;;;;;;;7.00;2.63;;;21.10;80.10;;;;;;5075868;28;20024;-80
2021/05/01 09:46:47;;;;;;;3.63;1.92;;;20.80;81.00;;;;;;5075589;28;20039;-80
2021/05/01 09:49:31;;;;;;;10.02;5.47;;;21.00;82.50;;;;;;5074844;28;20046;-79
2021/05/01 09:51:58;;;;;;;3.75;1.90;;;21.30;81.30;;;;;;5075222;28;20025;-76
2021/05/01 09:54:41;;;;;;;3.22;1.50;;;21.80;81.00;;;;;;5075569;28;20031;-78
2021/05/01 09:57:16;;;;;;;5.03;1.80;;;22.10;78.20;;;;;;5074317;28;20032;-80
2021/05/01 09:59:49;;;;;;;5.15;1.60;;;22.00;76.50;;;;;;5075505;28;20558;-79
2021/05/01 10:02:17;;;;;;;4.93;1.92;;;21.90;76.60;;;;;;5075948;28;20024;-83
2021/05/01 10:05:02;;;;;;;2.88;1.55;;;22.00;78.00;;;;;;5075605;28;20036;-79
2021/05/01 10:07:28;;;;;;;3.95;1.52;;;22.10;76.80;;;;;;5075036;28;20464;-79
2021/05/01 10:09:56;;;;;;;3.75;1.70;;;22.30;77.30;;;;;;5075294;28;20036;-82
2021/05/01 10:12:22;;;;;;;3.28;1.35;;;22.60;76.70;;;;;;5074960;28;20017;-81
2021/05/01 10:14:52;;;;;;;2.20;1.30;;;22.70;75.50;;;;;;5075288;28;20029;-81
2021/05/01 10:17:28;;;;;;;5.97;1.98;;;22.70;75.50;;;;;;5074287;28;20021;-81
2021/05/01 10:20:05;;;;;;;5.32;2.17;;;22.60;74.30;;;;;;5074857;28;20107;-81
2021/05/01 10:22:43;;;;;;;4.38;2.10;;;22.40;74.40;;;;;;5073476;28;20058;-79
2021/05/01 10:25:21;;;;;;;4.25;1.85;;;22.20;76.60;;;;;;5073223;28;20025;-79
2021/05/01 10:28:03;;;;;;;3.03;1.60;;;22.20;75.50;;;;;;5074670;28;20085;-81
2021/05/01 10:30:36;;;;;;;2.60;1.33;;;22.20;76.40;;;;;;5074580;28;20033;-80
2021/05/01 10:35:50;;;;;;;3.97;1.75;;;22.30;75.80;;;;;;5074832;28;20120;-80
2021/05/01 10:38:20;;;;;;;6.03;1.85;;;22.50;75.90;;;;;;5073128;28;20029;-79
2021/05/01 10:40:53;;;;;;;2.45;1.38;;;22.70;74.50;;;;;;5072283;28;20025;-81
2021/05/01 10:43:23;;;;;;;2.40;1.30;;;22.70;73.70;;;;;;5072995;28;20017;-82
2021/05/01 10:46:07;;;;;;;3.25;1.30;;;22.20;74.80;;;;;;5074593;28;20511;-81
2021/05/01 10:48:48;;;;;;;2.47;1.25;;;22.10;75.80;;;;;;5074365;28;20029;-80
2021/05/01 10:51:16;;;;;;;3.42;1.40;;;22.10;74.50;;;;;;5072977;28;20068;-78
2021/05/01 10:53:42;;;;;;;3.00;1.55;;;22.20;75.00;;;;;;5073455;28;20343;-82
2021/05/01 10:56:10;;;;;;;3.20;1.13;;;22.10;75.50;;;;;;5074530;28;20063;-81
2021/05/01 10:58:43;;;;;;;2.45;1.33;;;22.10;75.70;;;;;;5073182;28;20025;-79
2021/05/01 11:01:35;;;;;;;3.83;1.23;;;22.20;76.20;;;;;;5073369;28;20472;-81
2021/05/01 11:04:06;;;;;;;2.58;1.10;;;22.00;74.30;;;;;;5072931;28;20032;-79
2021/05/01 11:07:20;;;;;;;4.47;1.90;;;21.90;73.90;;;;;;5073183;28;20844;-80
2021/05/01 11:09:49;;;;;;;1.95;1.27;;;21.80;75.10;;;;;;5057497;28;20432;-80
2021/05/01 11:12:19;;;;;;;2.83;1.30;;;21.90;75.20;;;;;;5073547;28;20077;-80
2021/05/01 11:15:14;;;;;;;3.85;1.42;;;22.10;75.60;;;;;;5073295;28;20017;-76
2021/05/01 11:17:40;;;;;;;4.22;1.33;;;22.30;76.50;;;;;;5073733;28;20044;-80
2021/05/01 11:20:06;;;;;;;4.47;1.27;;;22.50;74.80;;;;;;5074379;28;20028;-80
2021/05/01 11:22:37;;;;;;;2.15;1.02;;;22.70;75.10;;;;;;5073086;28;20372;-80
2021/05/01 11:25:11;;;;;;;1.35;0.90;;;22.70;74.40;;;;;;5074042;28;20048;-80
2021/05/01 11:27:38;;;;;;;2.10;1.20;;;22.60;74.70;;;;;;5073984;28;20052;-79
2021/05/01 11:30:05;;;;;;;2.40;1.17;;;22.20;76.00;;;;;;5073311;28;20122;-80
2021/05/01 11:32:31;;;;;;;1.80;1.10;;;22.30;74.90;;;;;;5072851;28;20024;-79
2021/05/01 11:35:17;;;;;;;3.15;1.40;;;22.30;75.60;;;;;;5074079;28;20059;-80
2021/05/01 11:37:49;;;;;;;6.05;1.52;;;22.10;75.90;;;;;;5072738;28;20032;-82
2021/05/01 11:40:16;;;;;;;2.33;1.40;;;22.20;76.10;;;;;;5072748;28;20108;-84
2021/05/01 11:42:44;;;;;;;2.03;1.20;;;21.90;76.60;;;;;;5073230;28;20021;-80
2021/05/01 11:45:39;;;;;;;4.38;1.30;;;21.70;76.10;;;;;;5072363;28;20716;-80
2021/05/01 11:48:09;;;;;;;2.08;1.20;;;21.70;77.90;;;;;;5073493;28;20023;-82
2021/05/01 11:50:37;;;;;;;1.98;1.40;;;21.70;77.10;;;;;;5071944;28;20090;-80
2021/05/01 11:53:21;;;;;;;3.08;1.38;;;21.80;78.60;;;;;;5072431;28;20467;-81
2021/05/01 11:56:18;;;;;;;2.95;1.40;;;21.80;79.20;;;;;;5072587;28;20468;-79
2021/05/01 11:58:44;;;;;;;3.00;1.45;;;22.00;78.00;;;;;;5071926;28;20479;-81
2021/05/01 12:01:22;;;;;;;1.77;1.33;;;22.30;78.10;;;;;;5072598;28;20024;-81
2021/05/01 12:04:02;;;;;;;3.45;1.38;;;22.40;76.30;;;;;;5071936;28;20032;-80
2021/05/01 12:06:28;;;;;;;3.70;1.23;;;22.60;76.60;;;;;;5072667;28;20460;-81
2021/05/01 12:08:57;;;;;;;3.63;1.80;;;22.50;76.30;;;;;;5072658;28;20035;-80
2021/05/01 12:11:23;;;;;;;2.83;1.60;;;22.20;75.90;;;;;;5072972;28;20107;-82
2021/05/01 12:13:50;;;;;;;3.95;1.63;;;21.90;77.60;;;;;;5072942;28;20020;-81
2021/05/01 12:16:19;;;;;;;5.68;1.85;;;21.70;78.00;;;;;;5072143;28;20882;-80
2021/05/01 12:18:51;;;;;;;2.72;1.73;;;21.60;78.70;;;;;;5072265;28;20029;-79
2021/05/01 12:21:27;;;;;;;2.90;1.63;;;21.50;78.40;;;;;;5073380;28;20376;-81
2021/05/01 12:23:59;;;;;;;5.68;1.70;;;21.60;80.70;;;;;;5071931;28;20032;-80
2021/05/01 12:26:35;;;;;;;3.13;1.58;;;22.00;79.10;;;;;;5071775;28;20051;-81
2021/05/01 12:29:19;;;;;;;4.50;1.60;;;22.20;79.00;;;;;;5071378;28;20035;-80
2021/05/01 12:31:47;;;;;;;3.75;1.65;;;22.50;77.30;;;;;;5071498;28;20039;-83
2021/05/01 12:34:13;;;;;;;5.32;1.65;;;22.60;75.80;;;;;;5073278;28;20043;-80
2021/05/01 12:36:48;;;;;;;3.97;1.77;;;22.40;75.30;;;;;;5073433;28;20460;-82
2021/05/01 12:39:16;;;;;;;3.33;1.60;;;22.50;76.10;;;;;;5073184;28;20043;-79
2021/05/01 12:41:47;;;;;;;7.47;2.03;;;22.50;76.70;;;;;;5073433;28;20039;-81
2021/05/01 12:44:33;;;;;;;5.20;2.08;;;22.70;76.10;;;;;;5071914;28;20025;-81
2021/05/01 12:46:59;;;;;;;2.90;1.60;;;22.90;74.70;;;;;;5071669;28;20028;-79
2021/05/01 12:49:27;;;;;;;3.63;1.63;;;23.00;74.00;;;;;;5071209;28;20017;-80
2021/05/01 12:52:02;;;;;;;3.65;1.45;;;23.00;73.50;;;;;;5073069;28;20112;-80
2021/05/01 12:54:33;;;;;;;5.32;1.90;;;23.10;74.30;;;;;;5074750;28;20025;-82
2021/05/01 12:57:02;;;;;;;3.83;1.55;;;23.20;74.00;;;;;;5075500;28;20039;-82
2021/05/01 12:59:37;;;;;;;3.80;1.80;;;23.20;72.40;;;;;;5075795;28;20020;-81